sensor_id;sensor_type;location;lat;lon;timestamp;P1;durP1;ratioP1;P2;durP2;ratioP2
13609;SDS011;6876;50.788;4.940;2023-06-10T00:01:40;7.80;;;6.72;;
13609;SDS011;6876;50.788;4.940;2023-06-10T00:04:28;8.10;;;7.30;;
13609;SDS011;6876;50.788;4.940;2023-06-10T00:07:17;7.50;;;6.80;;
13609;SDS011;6876;50.788;4.940;2023-06-10T00:10:04;8.40;;;7.47;;
13609;SDS011;6876;50.788;4.940;2023-06-10T00:12:52;8.40;;;6.78;;
13609;SDS011;6876;50.788;4.940;2023-06-10T00:15:39;8.23;;;7.10;;
13609;SDS011;6876;50.788;4.940;2023-06-10T00:18:26;8.27;;;6.82;;
13609;SDS011;6876;50.788;4.940;2023-06-10T00:21:16;7.95;;;7.10;;
13609;SDS011;6876;50.788;4.940;2023-06-10T00:24:06;9.75;;;6.68;;
13609;SDS011;6876;50.788;4.940;2023-06-10T00:26:57;8.95;;;6.90;;
13609;SDS011;6876;50.788;4.940;2023-06-10T00:29:44;7.93;;;6.78;;
13609;SDS011;6876;50.788;4.940;2023-06-10T00:32:31;7.93;;;7.13;;
13609;SDS011;6876;50.788;4.940;2023-06-10T00:35:19;9.90;;;7.38;;
13609;SDS011;6876;50.788;4.940;2023-06-10T00:38:06;8.35;;;7.53;;
13609;SDS011;6876;50.788;4.940;2023-06-10T00:40:54;10.45;;;7.32;;
13609;SDS011;6876;50.788;4.940;2023-06-10T00:43:42;8.13;;;7.32;;
13609;SDS011;6876;50.788;4.940;2023-06-10T00:46:29;8.85;;;7.20;;
13609;SDS011;6876;50.788;4.940;2023-06-10T00:49:19;11.30;;;7.07;;
13609;SDS011;6876;50.788;4.940;2023-06-10T00:52:06;9.65;;;6.57;;
13609;SDS011;6876;50.788;4.940;2023-06-10T00:54:55;12.45;;;7.53;;
13609;SDS011;6876;50.788;4.940;2023-06-10T00:57:44;8.30;;;7.43;;
13609;SDS011;6876;50.788;4.940;2023-06-10T01:00:33;7.97;;;7.18;;
13609;SDS011;6876;50.788;4.940;2023-06-10T01:03:21;9.45;;;7.57;;
13609;SDS011;6876;50.788;4.940;2023-06-10T01:06:09;9.63;;;7.82;;
13609;SDS011;6876;50.788;4.940;2023-06-10T01:09:06;11.63;;;8.00;;
13609;SDS011;6876;50.788;4.940;2023-06-10T01:12:01;8.75;;;7.65;;
13609;SDS011;6876;50.788;4.940;2023-06-10T01:14:56;8.25;;;7.45;;
13609;SDS011;6876;50.788;4.940;2023-06-10T01:17:55;12.48;;;7.93;;
13609;SDS011;6876;50.788;4.940;2023-06-10T01:20:43;9.25;;;8.27;;
13609;SDS011;6876;50.788;4.940;2023-06-10T01:23:33;8.70;;;7.90;;
13609;SDS011;6876;50.788;4.940;2023-06-10T01:26:20;11.50;;;7.80;;
13609;SDS011;6876;50.788;4.940;2023-06-10T01:29:11;8.82;;;7.43;;
13609;SDS011;6876;50.788;4.940;2023-06-10T01:32:05;9.43;;;7.55;;
13609;SDS011;6876;50.788;4.940;2023-06-10T01:34:58;8.80;;;8.00;;
13609;SDS011;6876;50.788;4.940;2023-06-10T01:37:48;10.13;;;8.05;;
13609;SDS011;6876;50.788;4.940;2023-06-10T01:40:38;10.30;;;8.50;;
13609;SDS011;6876;50.788;4.940;2023-06-10T01:43:26;8.93;;;8.02;;
13609;SDS011;6876;50.788;4.940;2023-06-10T01:46:14;10.80;;;8.13;;
13609;SDS011;6876;50.788;4.940;2023-06-10T01:49:05;13.32;;;8.10;;
13609;SDS011;6876;50.788;4.940;2023-06-10T01:51:52;8.90;;;8.02;;
13609;SDS011;6876;50.788;4.940;2023-06-10T01:54:40;10.05;;;8.20;;
13609;SDS011;6876;50.788;4.940;2023-06-10T01:57:28;8.70;;;7.90;;
13609;SDS011;6876;50.788;4.940;2023-06-10T02:00:16;9.45;;;8.55;;
13609;SDS011;6876;50.788;4.940;2023-06-10T02:03:03;10.85;;;8.15;;
13609;SDS011;6876;50.788;4.940;2023-06-10T02:05:50;9.80;;;8.77;;
13609;SDS011;6876;50.788;4.940;2023-06-10T02:08:38;9.43;;;7.97;;
13609;SDS011;6876;50.788;4.940;2023-06-10T02:11:25;9.27;;;8.30;;
13609;SDS011;6876;50.788;4.940;2023-06-10T02:14:14;9.10;;;8.20;;
13609;SDS011;6876;50.788;4.940;2023-06-10T02:17:01;13.20;;;9.00;;
13609;SDS011;6876;50.788;4.940;2023-06-10T02:19:50;12.13;;;8.60;;
13609;SDS011;6876;50.788;4.940;2023-06-10T02:22:38;9.32;;;8.38;;
13609;SDS011;6876;50.788;4.940;2023-06-10T02:25:26;10.60;;;8.90;;
13609;SDS011;6876;50.788;4.940;2023-06-10T02:28:13;8.95;;;8.15;;
13609;SDS011;6876;50.788;4.940;2023-06-10T02:31:02;11.63;;;9.00;;
13609;SDS011;6876;50.788;4.940;2023-06-10T02:33:49;9.90;;;8.82;;
13609;SDS011;6876;50.788;4.940;2023-06-10T02:36:36;10.40;;;9.23;;
13609;SDS011;6876;50.788;4.940;2023-06-10T02:39:23;10.82;;;9.13;;
13609;SDS011;6876;50.788;4.940;2023-06-10T02:42:11;11.32;;;9.00;;
13609;SDS011;6876;50.788;4.940;2023-06-10T02:44:58;10.43;;;9.32;;
13609;SDS011;6876;50.788;4.940;2023-06-10T02:47:47;14.45;;;9.10;;
13609;SDS011;6876;50.788;4.940;2023-06-10T02:50:34;11.63;;;9.00;;
13609;SDS011;6876;50.788;4.940;2023-06-10T02:53:24;11.18;;;9.15;;
13609;SDS011;6876;50.788;4.940;2023-06-10T02:56:11;10.40;;;9.32;;
13609;SDS011;6876;50.788;4.940;2023-06-10T02:58:58;10.40;;;9.25;;
13609;SDS011;6876;50.788;4.940;2023-06-10T03:01:45;10.32;;;9.30;;
13609;SDS011;6876;50.788;4.940;2023-06-10T03:04:34;11.35;;;9.32;;
13609;SDS011;6876;50.788;4.940;2023-06-10T03:07:23;12.38;;;9.57;;
13609;SDS011;6876;50.788;4.940;2023-06-10T03:10:11;10.88;;;9.82;;
13609;SDS011;6876;50.788;4.940;2023-06-10T03:12:58;16.48;;;9.18;;
13609;SDS011;6876;50.788;4.940;2023-06-10T03:15:46;10.57;;;9.23;;
13609;SDS011;6876;50.788;4.940;2023-06-10T03:18:33;15.50;;;10.43;;
13609;SDS011;6876;50.788;4.940;2023-06-10T03:21:22;11.88;;;10.60;;
13609;SDS011;6876;50.788;4.940;2023-06-10T03:24:09;11.43;;;9.90;;
13609;SDS011;6876;50.788;4.940;2023-06-10T03:26:57;12.02;;;10.45;;
13609;SDS011;6876;50.788;4.940;2023-06-10T03:29:44;12.07;;;10.75;;
13609;SDS011;6876;50.788;4.940;2023-06-10T03:32:31;13.93;;;10.93;;
13609;SDS011;6876;50.788;4.940;2023-06-10T03:35:18;13.50;;;11.13;;
13609;SDS011;6876;50.788;4.940;2023-06-10T03:38:07;13.57;;;11.48;;
13609;SDS011;6876;50.788;4.940;2023-06-10T03:40:55;12.57;;;11.38;;
13609;SDS011;6876;50.788;4.940;2023-06-10T03:43:42;12.38;;;10.90;;
13609;SDS011;6876;50.788;4.940;2023-06-10T03:46:30;12.68;;;11.43;;
13609;SDS011;6876;50.788;4.940;2023-06-10T03:49:17;12.57;;;11.25;;
13609;SDS011;6876;50.788;4.940;2023-06-10T03:52:04;13.57;;;11.50;;
13609;SDS011;6876;50.788;4.940;2023-06-10T03:54:53;12.63;;;11.00;;
13609;SDS011;6876;50.788;4.940;2023-06-10T03:57:40;12.52;;;11.40;;
13609;SDS011;6876;50.788;4.940;2023-06-10T04:00:28;13.45;;;11.45;;
13609;SDS011;6876;50.788;4.940;2023-06-10T04:03:15;13.35;;;12.02;;
13609;SDS011;6876;50.788;4.940;2023-06-10T04:06:02;14.73;;;11.35;;
13609;SDS011;6876;50.788;4.940;2023-06-10T04:08:50;14.43;;;12.15;;
13609;SDS011;6876;50.788;4.940;2023-06-10T04:11:38;12.23;;;10.88;;
13609;SDS011;6876;50.788;4.940;2023-06-10T04:14:26;14.35;;;11.30;;
13609;SDS011;6876;50.788;4.940;2023-06-10T04:17:13;14.35;;;11.13;;
13609;SDS011;6876;50.788;4.940;2023-06-10T04:20:00;12.43;;;10.70;;
13609;SDS011;6876;50.788;4.940;2023-06-10T04:22:48;13.15;;;10.75;;
13609;SDS011;6876;50.788;4.940;2023-06-10T04:25:35;17.13;;;10.65;;
13609;SDS011;6876;50.788;4.940;2023-06-10T04:28:24;12.43;;;10.38;;
13609;SDS011;6876;50.788;4.940;2023-06-10T04:31:11;10.95;;;9.85;;
13609;SDS011;6876;50.788;4.940;2023-06-10T04:33:58;12.25;;;10.32;;
13609;SDS011;6876;50.788;4.940;2023-06-10T04:36:46;11.50;;;10.13;;
13609;SDS011;6876;50.788;4.940;2023-06-10T04:39:33;11.30;;;10.20;;
13609;SDS011;6876;50.788;4.940;2023-06-10T04:42:20;11.55;;;10.38;;
13609;SDS011;6876;50.788;4.940;2023-06-10T04:45:09;11.23;;;10.13;;
13609;SDS011;6876;50.788;4.940;2023-06-10T04:47:57;12.20;;;9.63;;
13609;SDS011;6876;50.788;4.940;2023-06-10T04:50:44;11.02;;;10.02;;
13609;SDS011;6876;50.788;4.940;2023-06-10T04:53:31;11.35;;;10.20;;
13609;SDS011;6876;50.788;4.940;2023-06-10T04:56:18;12.05;;;10.48;;
13609;SDS011;6876;50.788;4.940;2023-06-10T04:59:07;11.77;;;10.73;;
13609;SDS011;6876;50.788;4.940;2023-06-10T05:01:56;11.77;;;10.68;;
13609;SDS011;6876;50.788;4.940;2023-06-10T05:04:44;15.75;;;10.50;;
13609;SDS011;6876;50.788;4.940;2023-06-10T05:07:31;12.57;;;10.68;;
13609;SDS011;6876;50.788;4.940;2023-06-10T05:10:18;12.77;;;11.20;;
13609;SDS011;6876;50.788;4.940;2023-06-10T05:13:06;12.05;;;10.23;;
13609;SDS011;6876;50.788;4.940;2023-06-10T05:15:53;10.90;;;9.85;;
13609;SDS011;6876;50.788;4.940;2023-06-10T05:18:41;11.95;;;10.52;;
13609;SDS011;6876;50.788;4.940;2023-06-10T05:21:29;11.85;;;9.70;;
13609;SDS011;6876;50.788;4.940;2023-06-10T05:24:16;10.77;;;9.80;;
13609;SDS011;6876;50.788;4.940;2023-06-10T05:27:03;13.48;;;10.80;;
13609;SDS011;6876;50.788;4.940;2023-06-10T05:29:52;11.52;;;10.32;;
13609;SDS011;6876;50.788;4.940;2023-06-10T05:32:39;11.43;;;10.18;;
13609;SDS011;6876;50.788;4.940;2023-06-10T05:35:28;12.40;;;10.70;;
13609;SDS011;6876;50.788;4.940;2023-06-10T05:38:15;11.75;;;10.57;;
13609;SDS011;6876;50.788;4.940;2023-06-10T05:41:02;12.18;;;10.63;;
13609;SDS011;6876;50.788;4.940;2023-06-10T05:43:49;11.30;;;10.10;;
13609;SDS011;6876;50.788;4.940;2023-06-10T05:46:37;11.40;;;10.20;;
13609;SDS011;6876;50.788;4.940;2023-06-10T05:49:24;11.50;;;10.30;;
13609;SDS011;6876;50.788;4.940;2023-06-10T05:52:13;11.85;;;10.70;;
13609;SDS011;6876;50.788;4.940;2023-06-10T05:55:00;11.95;;;10.13;;
13609;SDS011;6876;50.788;4.940;2023-06-10T05:57:47;12.07;;;10.38;;
13609;SDS011;6876;50.788;4.940;2023-06-10T06:00:44;12.32;;;9.45;;
13609;SDS011;6876;50.788;4.940;2023-06-10T06:03:31;10.27;;;9.27;;
13609;SDS011;6876;50.788;4.940;2023-06-10T06:06:18;13.48;;;9.38;;
13609;SDS011;6876;50.788;4.940;2023-06-10T06:09:08;11.38;;;9.27;;
13609;SDS011;6876;50.788;4.940;2023-06-10T06:11:55;9.43;;;8.52;;
13609;SDS011;6876;50.788;4.940;2023-06-10T06:14:42;10.80;;;9.48;;
13609;SDS011;6876;50.788;4.940;2023-06-10T06:17:30;9.40;;;8.50;;
13609;SDS011;6876;50.788;4.940;2023-06-10T06:20:17;10.10;;;9.10;;
13609;SDS011;6876;50.788;4.940;2023-06-10T06:23:04;9.32;;;8.43;;
13609;SDS011;6876;50.788;4.940;2023-06-10T06:25:55;9.45;;;8.65;;
13609;SDS011;6876;50.788;4.940;2023-06-10T06:28:42;10.48;;;9.15;;
13609;SDS011;6876;50.788;4.940;2023-06-10T06:31:30;9.55;;;8.15;;
13609;SDS011;6876;50.788;4.940;2023-06-10T06:34:17;10.23;;;9.15;;
13609;SDS011;6876;50.788;4.940;2023-06-10T06:37:05;11.38;;;9.27;;
13609;SDS011;6876;50.788;4.940;2023-06-10T06:39:53;9.57;;;8.68;;
13609;SDS011;6876;50.788;4.940;2023-06-10T06:42:41;8.93;;;8.02;;
13609;SDS011;6876;50.788;4.940;2023-06-10T06:45:29;9.10;;;8.30;;
13609;SDS011;6876;50.788;4.940;2023-06-10T06:48:16;9.68;;;8.27;;
13609;SDS011;6876;50.788;4.940;2023-06-10T06:51:03;9.90;;;8.90;;
13609;SDS011;6876;50.788;4.940;2023-06-10T06:53:50;9.30;;;8.18;;
13609;SDS011;6876;50.788;4.940;2023-06-10T06:56:42;9.55;;;8.52;;
13609;SDS011;6876;50.788;4.940;2023-06-10T06:59:30;12.65;;;7.95;;
13609;SDS011;6876;50.788;4.940;2023-06-10T07:02:18;9.50;;;8.18;;
13609;SDS011;6876;50.788;4.940;2023-06-10T07:05:05;9.07;;;8.25;;
13609;SDS011;6876;50.788;4.940;2023-06-10T07:07:53;9.73;;;7.80;;
13609;SDS011;6876;50.788;4.940;2023-06-10T07:10:41;8.60;;;7.70;;
13609;SDS011;6876;50.788;4.940;2023-06-10T07:13:29;8.75;;;7.78;;
13609;SDS011;6876;50.788;4.940;2023-06-10T07:16:17;10.40;;;8.23;;
13609;SDS011;6876;50.788;4.940;2023-06-10T07:19:06;9.13;;;8.23;;
13609;SDS011;6876;50.788;4.940;2023-06-10T07:21:53;8.50;;;7.60;;
13609;SDS011;6876;50.788;4.940;2023-06-10T07:24:41;8.52;;;7.35;;
13609;SDS011;6876;50.788;4.940;2023-06-10T07:27:28;11.25;;;7.68;;
13609;SDS011;6876;50.788;4.940;2023-06-10T07:30:15;9.80;;;7.30;;
13609;SDS011;6876;50.788;4.940;2023-06-10T07:33:04;8.13;;;7.32;;
13609;SDS011;6876;50.788;4.940;2023-06-10T07:35:53;9.52;;;6.85;;
13609;SDS011;6876;50.788;4.940;2023-06-10T07:38:40;7.30;;;6.63;;
13609;SDS011;6876;50.788;4.940;2023-06-10T07:41:28;8.93;;;7.47;;
13609;SDS011;6876;50.788;4.940;2023-06-10T07:44:15;8.15;;;7.03;;
13609;SDS011;6876;50.788;4.940;2023-06-10T07:47:02;10.00;;;7.47;;
13609;SDS011;6876;50.788;4.940;2023-06-10T07:49:51;12.65;;;6.80;;
13609;SDS011;6876;50.788;4.940;2023-06-10T07:52:39;8.75;;;6.60;;
13609;SDS011;6876;50.788;4.940;2023-06-10T07:55:26;7.25;;;6.32;;
13609;SDS011;6876;50.788;4.940;2023-06-10T07:58:13;10.95;;;6.70;;
13609;SDS011;6876;50.788;4.940;2023-06-10T08:01:01;7.68;;;6.85;;
13609;SDS011;6876;50.788;4.940;2023-06-10T08:03:48;8.23;;;6.90;;
13609;SDS011;6876;50.788;4.940;2023-06-10T08:06:37;9.65;;;7.22;;
13609;SDS011;6876;50.788;4.940;2023-06-10T08:09:24;7.90;;;6.82;;
13609;SDS011;6876;50.788;4.940;2023-06-10T08:12:11;8.68;;;6.82;;
13609;SDS011;6876;50.788;4.940;2023-06-10T08:14:58;6.75;;;6.05;;
13609;SDS011;6876;50.788;4.940;2023-06-10T08:17:46;7.30;;;6.47;;
13609;SDS011;6876;50.788;4.940;2023-06-10T08:20:33;8.68;;;6.93;;
13609;SDS011;6876;50.788;4.940;2023-06-10T08:23:21;7.00;;;6.30;;
13609;SDS011;6876;50.788;4.940;2023-06-10T08:26:09;7.43;;;5.93;;
13609;SDS011;6876;50.788;4.940;2023-06-10T08:28:56;9.25;;;5.90;;
13609;SDS011;6876;50.788;4.940;2023-06-10T08:31:44;7.93;;;6.00;;
13609;SDS011;6876;50.788;4.940;2023-06-10T08:37:19;6.65;;;5.95;;
13609;SDS011;6876;50.788;4.940;2023-06-10T08:40:09;7.78;;;5.97;;
13609;SDS011;6876;50.788;4.940;2023-06-10T08:43:00;8.27;;;5.90;;
13609;SDS011;6876;50.788;4.940;2023-06-10T08:45:50;7.30;;;6.15;;
13609;SDS011;6876;50.788;4.940;2023-06-10T08:48:43;6.57;;;5.97;;
13609;SDS011;6876;50.788;4.940;2023-06-10T08:51:34;7.68;;;6.07;;
13609;SDS011;6876;50.788;4.940;2023-06-10T08:54:24;8.07;;;5.70;;
13609;SDS011;6876;50.788;4.940;2023-06-10T08:57:14;6.32;;;5.43;;
13609;SDS011;6876;50.788;4.940;2023-06-10T09:00:04;7.05;;;6.45;;
13609;SDS011;6876;50.788;4.940;2023-06-10T09:02:52;8.10;;;6.18;;
13609;SDS011;6876;50.788;4.940;2023-06-10T09:05:40;7.80;;;5.22;;
13609;SDS011;6876;50.788;4.940;2023-06-10T09:08:28;7.70;;;6.05;;
13609;SDS011;6876;50.788;4.940;2023-06-10T09:11:15;6.97;;;6.35;;
13609;SDS011;6876;50.788;4.940;2023-06-10T09:14:04;7.22;;;6.13;;
13609;SDS011;6876;50.788;4.940;2023-06-10T09:16:51;11.48;;;6.18;;
13609;SDS011;6876;50.788;4.940;2023-06-10T09:19:42;6.93;;;6.32;;
13609;SDS011;6876;50.788;4.940;2023-06-10T09:22:31;6.90;;;5.95;;
13609;SDS011;6876;50.788;4.940;2023-06-10T09:25:19;7.07;;;5.75;;
13609;SDS011;6876;50.788;4.940;2023-06-10T09:28:22;8.48;;;5.72;;
13609;SDS011;6876;50.788;4.940;2023-06-10T09:31:11;9.75;;;6.50;;
13609;SDS011;6876;50.788;4.940;2023-06-10T09:34:06;6.80;;;6.07;;
13609;SDS011;6876;50.788;4.940;2023-06-10T09:36:54;9.45;;;6.40;;
13609;SDS011;6876;50.788;4.940;2023-06-10T09:39:42;8.30;;;6.28;;
13609;SDS011;6876;50.788;4.940;2023-06-10T09:42:30;6.80;;;6.20;;
13609;SDS011;6876;50.788;4.940;2023-06-10T09:45:19;7.13;;;6.20;;
13609;SDS011;6876;50.788;4.940;2023-06-10T09:48:08;9.25;;;6.45;;
13609;SDS011;6876;50.788;4.940;2023-06-10T09:50:56;11.82;;;6.28;;
13609;SDS011;6876;50.788;4.940;2023-06-10T09:53:43;8.40;;;6.03;;
13609;SDS011;6876;50.788;4.940;2023-06-10T09:56:35;8.80;;;6.13;;
13609;SDS011;6876;50.788;4.940;2023-06-10T09:59:28;7.80;;;7.00;;
13609;SDS011;6876;50.788;4.940;2023-06-10T10:02:17;12.30;;;6.32;;
13609;SDS011;6876;50.788;4.940;2023-06-10T10:05:06;8.13;;;6.60;;
13609;SDS011;6876;50.788;4.940;2023-06-10T10:07:54;6.93;;;5.72;;
13609;SDS011;6876;50.788;4.940;2023-06-10T10:10:41;9.20;;;6.60;;
13609;SDS011;6876;50.788;4.940;2023-06-10T10:13:29;6.80;;;6.07;;
13609;SDS011;6876;50.788;4.940;2023-06-10T10:16:21;7.00;;;6.30;;
13609;SDS011;6876;50.788;4.940;2023-06-10T10:19:15;6.75;;;6.15;;
13609;SDS011;6876;50.788;4.940;2023-06-10T10:22:08;8.50;;;6.50;;
13609;SDS011;6876;50.788;4.940;2023-06-10T10:25:02;7.47;;;6.32;;
13609;SDS011;6876;50.788;4.940;2023-06-10T10:27:55;9.63;;;6.10;;
13609;SDS011;6876;50.788;4.940;2023-06-10T10:30:46;9.18;;;6.43;;
13609;SDS011;6876;50.788;4.940;2023-06-10T10:33:36;12.40;;;6.85;;
13609;SDS011;6876;50.788;4.940;2023-06-10T10:36:32;7.07;;;6.43;;
13609;SDS011;6876;50.788;4.940;2023-06-10T10:39:21;6.13;;;5.57;;
13609;SDS011;6876;50.788;4.940;2023-06-10T10:42:08;7.38;;;5.65;;
13609;SDS011;6876;50.788;4.940;2023-06-10T10:44:56;6.38;;;5.72;;
13609;SDS011;6876;50.788;4.940;2023-06-10T10:47:45;8.00;;;5.95;;
13609;SDS011;6876;50.788;4.940;2023-06-10T10:50:33;6.45;;;5.85;;
13609;SDS011;6876;50.788;4.940;2023-06-10T10:53:20;6.68;;;6.03;;
13609;SDS011;6876;50.788;4.940;2023-06-10T10:56:13;7.22;;;5.78;;
13609;SDS011;6876;50.788;4.940;2023-06-10T10:59:03;6.88;;;5.80;;
13609;SDS011;6876;50.788;4.940;2023-06-10T11:01:50;8.32;;;5.55;;
13609;SDS011;6876;50.788;4.940;2023-06-10T11:04:41;7.00;;;5.53;;
13609;SDS011;6876;50.788;4.940;2023-06-10T11:07:32;6.63;;;5.75;;
13609;SDS011;6876;50.788;4.940;2023-06-10T11:10:28;8.23;;;6.10;;
13609;SDS011;6876;50.788;4.940;2023-06-10T11:13:19;7.68;;;5.53;;
13609;SDS011;6876;50.788;4.940;2023-06-10T11:16:06;6.72;;;5.45;;
13609;SDS011;6876;50.788;4.940;2023-06-10T11:18:56;7.55;;;5.38;;
13609;SDS011;6876;50.788;4.940;2023-06-10T11:21:58;6.75;;;4.95;;
13609;SDS011;6876;50.788;4.940;2023-06-10T11:24:49;6.75;;;5.47;;
13609;SDS011;6876;50.788;4.940;2023-06-10T11:27:37;5.35;;;4.85;;
13609;SDS011;6876;50.788;4.940;2023-06-10T11:30:27;5.78;;;4.93;;
13609;SDS011;6876;50.788;4.940;2023-06-10T11:33:27;6.97;;;5.75;;
13609;SDS011;6876;50.788;4.940;2023-06-10T11:36:16;6.07;;;5.43;;
13609;SDS011;6876;50.788;4.940;2023-06-10T11:39:04;5.95;;;5.45;;
13609;SDS011;6876;50.788;4.940;2023-06-10T11:41:54;6.95;;;5.28;;
13609;SDS011;6876;50.788;4.940;2023-06-10T11:44:47;5.93;;;5.28;;
13609;SDS011;6876;50.788;4.940;2023-06-10T11:47:36;5.70;;;5.20;;
13609;SDS011;6876;50.788;4.940;2023-06-10T11:50:30;6.30;;;5.60;;
13609;SDS011;6876;50.788;4.940;2023-06-10T11:53:18;5.95;;;5.22;;
13609;SDS011;6876;50.788;4.940;2023-06-10T11:56:06;6.28;;;5.35;;
13609;SDS011;6876;50.788;4.940;2023-06-10T11:58:54;5.95;;;5.28;;
13609;SDS011;6876;50.788;4.940;2023-06-10T12:01:43;6.20;;;4.97;;
13609;SDS011;6876;50.788;4.940;2023-06-10T12:04:32;5.47;;;4.97;;
13609;SDS011;6876;50.788;4.940;2023-06-10T12:07:19;7.80;;;5.30;;
13609;SDS011;6876;50.788;4.940;2023-06-10T12:10:08;5.90;;;5.30;;
13609;SDS011;6876;50.788;4.940;2023-06-10T12:12:55;7.05;;;5.40;;
13609;SDS011;6876;50.788;4.940;2023-06-10T12:15:43;5.90;;;5.20;;
13609;SDS011;6876;50.788;4.940;2023-06-10T12:18:30;7.25;;;5.55;;
13609;SDS011;6876;50.788;4.940;2023-06-10T12:21:20;6.45;;;5.80;;
13609;SDS011;6876;50.788;4.940;2023-06-10T12:24:11;8.98;;;5.75;;
13609;SDS011;6876;50.788;4.940;2023-06-10T12:26:58;7.07;;;4.95;;
13609;SDS011;6876;50.788;4.940;2023-06-10T12:29:50;6.45;;;5.40;;
13609;SDS011;6876;50.788;4.940;2023-06-10T12:32:41;7.15;;;5.50;;
13609;SDS011;6876;50.788;4.940;2023-06-10T12:35:29;5.65;;;4.90;;
13609;SDS011;6876;50.788;4.940;2023-06-10T12:38:22;7.28;;;5.13;;
13609;SDS011;6876;50.788;4.940;2023-06-10T12:41:10;10.57;;;5.80;;
13609;SDS011;6876;50.788;4.940;2023-06-10T12:43:57;9.02;;;5.38;;
13609;SDS011;6876;50.788;4.940;2023-06-10T12:46:45;5.80;;;5.30;;
13609;SDS011;6876;50.788;4.940;2023-06-10T12:49:32;5.90;;;5.40;;
13609;SDS011;6876;50.788;4.940;2023-06-10T12:52:20;8.32;;;5.72;;
13609;SDS011;6876;50.788;4.940;2023-06-10T12:55:09;6.00;;;5.40;;
13609;SDS011;6876;50.788;4.940;2023-06-10T12:57:56;6.70;;;5.25;;
13609;SDS011;6876;50.788;4.940;2023-06-10T13:00:43;7.05;;;5.28;;
13609;SDS011;6876;50.788;4.940;2023-06-10T13:03:31;6.68;;;5.30;;
13609;SDS011;6876;50.788;4.940;2023-06-10T13:06:18;9.48;;;5.30;;
13609;SDS011;6876;50.788;4.940;2023-06-10T13:09:05;8.98;;;5.70;;
13609;SDS011;6876;50.788;4.940;2023-06-10T13:11:55;8.70;;;5.97;;
13609;SDS011;6876;50.788;4.940;2023-06-10T13:14:42;7.47;;;5.30;;
13609;SDS011;6876;50.788;4.940;2023-06-10T13:17:29;10.80;;;5.63;;
13609;SDS011;6876;50.788;4.940;2023-06-10T13:20:17;6.28;;;5.35;;
13609;SDS011;6876;50.788;4.940;2023-06-10T13:23:04;10.60;;;5.60;;
13609;SDS011;6876;50.788;4.940;2023-06-10T13:25:51;8.70;;;5.75;;
13609;SDS011;6876;50.788;4.940;2023-06-10T13:28:40;8.70;;;6.00;;
13609;SDS011;6876;50.788;4.940;2023-06-10T13:31:27;7.20;;;5.43;;
13609;SDS011;6876;50.788;4.940;2023-06-10T13:34:14;9.45;;;5.80;;
13609;SDS011;6876;50.788;4.940;2023-06-10T13:37:02;8.15;;;5.53;;
13609;SDS011;6876;50.788;4.940;2023-06-10T13:39:50;6.32;;;5.45;;
13609;SDS011;6876;50.788;4.940;2023-06-10T13:42:38;5.85;;;4.95;;
13609;SDS011;6876;50.788;4.940;2023-06-10T13:45:26;7.38;;;5.22;;
13609;SDS011;6876;50.788;4.940;2023-06-10T13:48:14;8.45;;;5.97;;
13609;SDS011;6876;50.788;4.940;2023-06-10T13:51:01;6.05;;;5.45;;
13609;SDS011;6876;50.788;4.940;2023-06-10T13:53:49;6.15;;;5.55;;
13609;SDS011;6876;50.788;4.940;2023-06-10T13:56:37;8.60;;;6.03;;
13609;SDS011;6876;50.788;4.940;2023-06-10T13:59:24;6.50;;;5.90;;
13609;SDS011;6876;50.788;4.940;2023-06-10T14:02:13;8.93;;;5.65;;
13609;SDS011;6876;50.788;4.940;2023-06-10T14:05:00;6.07;;;5.47;;
13609;SDS011;6876;50.788;4.940;2023-06-10T14:07:48;6.22;;;5.65;;
13609;SDS011;6876;50.788;4.940;2023-06-10T14:10:35;8.82;;;5.68;;
13609;SDS011;6876;50.788;4.940;2023-06-10T14:13:22;10.00;;;5.65;;
13609;SDS011;6876;50.788;4.940;2023-06-10T14:16:09;6.47;;;5.40;;
13609;SDS011;6876;50.788;4.940;2023-06-10T14:18:58;7.63;;;5.40;;
13609;SDS011;6876;50.788;4.940;2023-06-10T14:21:46;6.53;;;5.80;;
13609;SDS011;6876;50.788;4.940;2023-06-10T14:24:36;6.38;;;5.55;;
13609;SDS011;6876;50.788;4.940;2023-06-10T14:27:23;8.00;;;5.65;;
13609;SDS011;6876;50.788;4.940;2023-06-10T14:30:11;8.60;;;5.82;;
13609;SDS011;6876;50.788;4.940;2023-06-10T14:32:58;6.03;;;5.43;;
13609;SDS011;6876;50.788;4.940;2023-06-10T14:35:47;10.13;;;5.50;;
13609;SDS011;6876;50.788;4.940;2023-06-10T14:38:34;5.97;;;5.47;;
13609;SDS011;6876;50.788;4.940;2023-06-10T14:41:21;6.45;;;5.50;;
13609;SDS011;6876;50.788;4.940;2023-06-10T14:44:08;7.18;;;5.13;;
13609;SDS011;6876;50.788;4.940;2023-06-10T14:46:56;7.18;;;5.53;;
13609;SDS011;6876;50.788;4.940;2023-06-10T14:49:43;8.30;;;6.15;;
13609;SDS011;6876;50.788;4.940;2023-06-10T14:52:32;11.05;;;5.85;;
13609;SDS011;6876;50.788;4.940;2023-06-10T14:55:19;6.82;;;6.00;;
13609;SDS011;6876;50.788;4.940;2023-06-10T14:58:09;8.52;;;5.65;;
13609;SDS011;6876;50.788;4.940;2023-06-10T15:00:59;7.63;;;5.35;;
13609;SDS011;6876;50.788;4.940;2023-06-10T15:03:47;6.90;;;5.53;;
13609;SDS011;6876;50.788;4.940;2023-06-10T15:06:34;6.95;;;5.80;;
13609;SDS011;6876;50.788;4.940;2023-06-10T15:09:23;7.47;;;5.10;;
13609;SDS011;6876;50.788;4.940;2023-06-10T15:12:10;9.48;;;5.57;;
13609;SDS011;6876;50.788;4.940;2023-06-10T15:14:57;6.80;;;5.30;;
13609;SDS011;6876;50.788;4.940;2023-06-10T15:17:45;6.07;;;4.95;;
13609;SDS011;6876;50.788;4.940;2023-06-10T15:20:32;8.73;;;5.20;;
13609;SDS011;6876;50.788;4.940;2023-06-10T15:23:19;5.88;;;5.10;;
13609;SDS011;6876;50.788;4.940;2023-06-10T15:26:09;6.78;;;5.07;;
13609;SDS011;6876;50.788;4.940;2023-06-10T15:28:57;8.82;;;5.45;;
13609;SDS011;6876;50.788;4.940;2023-06-10T15:31:49;6.38;;;4.95;;
13609;SDS011;6876;50.788;4.940;2023-06-10T15:34:36;8.20;;;5.28;;
13609;SDS011;6876;50.788;4.940;2023-06-10T15:37:24;7.80;;;5.15;;
13609;SDS011;6876;50.788;4.940;2023-06-10T15:40:11;5.97;;;5.38;;
13609;SDS011;6876;50.788;4.940;2023-06-10T15:43:00;6.47;;;5.32;;
13609;SDS011;6876;50.788;4.940;2023-06-10T15:45:47;7.00;;;5.32;;
13609;SDS011;6876;50.788;4.940;2023-06-10T15:48:34;6.68;;;5.22;;
13609;SDS011;6876;50.788;4.940;2023-06-10T15:51:21;6.18;;;4.93;;
13609;SDS011;6876;50.788;4.940;2023-06-10T15:54:09;6.35;;;5.32;;
13609;SDS011;6876;50.788;4.940;2023-06-10T15:56:56;7.20;;;5.40;;
13609;SDS011;6876;50.788;4.940;2023-06-10T15:59:45;7.20;;;5.05;;
13609;SDS011;6876;50.788;4.940;2023-06-10T16:02:32;7.38;;;5.53;;
13609;SDS011;6876;50.788;4.940;2023-06-10T16:05:19;7.10;;;5.10;;
13609;SDS011;6876;50.788;4.940;2023-06-10T16:08:06;7.63;;;5.40;;
13609;SDS011;6876;50.788;4.940;2023-06-10T16:10:54;6.88;;;5.40;;
13609;SDS011;6876;50.788;4.940;2023-06-10T16:13:41;7.13;;;5.10;;
13609;SDS011;6876;50.788;4.940;2023-06-10T16:16:29;7.18;;;4.95;;
13609;SDS011;6876;50.788;4.940;2023-06-10T16:19:17;6.43;;;5.75;;
13609;SDS011;6876;50.788;4.940;2023-06-10T16:22:04;6.68;;;6.13;;
13609;SDS011;6876;50.788;4.940;2023-06-10T16:24:51;7.95;;;5.68;;
13609;SDS011;6876;50.788;4.940;2023-06-10T16:27:38;11.68;;;5.45;;
13609;SDS011;6876;50.788;4.940;2023-06-10T16:30:25;9.18;;;4.97;;
13609;SDS011;6876;50.788;4.940;2023-06-10T16:33:14;5.90;;;5.30;;
13609;SDS011;6876;50.788;4.940;2023-06-10T16:36:02;8.60;;;5.30;;
13609;SDS011;6876;50.788;4.940;2023-06-10T16:38:49;8.18;;;5.30;;
13609;SDS011;6876;50.788;4.940;2023-06-10T16:41:37;11.75;;;5.82;;
13609;SDS011;6876;50.788;4.940;2023-06-10T16:44:24;6.63;;;6.03;;
13609;SDS011;6876;50.788;4.940;2023-06-10T16:47:12;7.15;;;5.97;;
13609;SDS011;6876;50.788;4.940;2023-06-10T16:50:00;6.78;;;5.93;;
13609;SDS011;6876;50.788;4.940;2023-06-10T16:52:48;6.75;;;6.05;;
13609;SDS011;6876;50.788;4.940;2023-06-10T16:55:36;6.47;;;5.78;;
13609;SDS011;6876;50.788;4.940;2023-06-10T16:58:23;8.00;;;6.20;;
13609;SDS011;6876;50.788;4.940;2023-06-10T17:01:11;6.63;;;5.60;;
13609;SDS011;6876;50.788;4.940;2023-06-10T17:03:58;6.78;;;6.18;;
13609;SDS011;6876;50.788;4.940;2023-06-10T17:06:47;9.30;;;5.93;;